Big Bear Station Historical Data
Daily Summary for September 24, 2017 Units:  English    Metric   Both
« Previous Day
Next Day »
Daily Weekly Monthly Yearly Custom
  High: Low: Average:
Temperature: 60.1 °F 29.5 °F 42.8 °F
Dew Point: 29.6 °F 21.4 °F 25.4 °F
Humidity: 85 % 28 % 54 %
Wind Speed: 6.3 mph 0.0 mph 1.7 mph
Wind Gust: -999.0 mph - -
Wind:- - WSW
Pressure: 30.12 in 30.05 in -
Precipitation: 0.00 in    
Historical Graphs
 
 
Tabular Data for September 24, 2017
Time Temperature Dew Point Pressure Wind Wind Speed Wind Gust Humidity Rainfall Rate (Hourly)
00:12 34.9 °F 26.1 °F 30.05 in Calm   -999.0 mph 70 % 0 in
00:27 34.5 °F 26.1 °F 30.05 in South 1.7 mph -999.0 mph 71 % 0 in
00:42 34.0 °F 25.6 °F 30.05 in Calm   -999.0 mph 71 % 0 in
00:57 33.6 °F 24.9 °F 30.05 in Calm   -999.0 mph 70 % 0 in
01:12 34.0 °F 25.2 °F 30.05 in Calm   -999.0 mph 70 % 0 in
01:28 33.8 °F 26.4 °F 30.05 in Calm   -999.0 mph 74 % 0 in
01:43 34.0 °F 26.9 °F 30.05 in SSE 1.7 mph -999.0 mph 75 % 0 in
01:58 34.2 °F 27.1 °F 30.06 in SSE 1.7 mph -999.0 mph 75 % 0 in
02:13 33.4 °F 27.0 °F 30.06 in Calm   -999.0 mph 77 % 0 in
02:28 33.1 °F 26.4 °F 30.05 in Calm   -999.0 mph 76 % 0 in
02:44 32.9 °F 26.2 °F 30.06 in Calm   -999.0 mph 76 % 0 in
02:59 32.5 °F 25.1 °F 30.06 in Calm   -999.0 mph 74 % 0 in
03:14 32.2 °F 24.8 °F 30.05 in Calm   -999.0 mph 74 % 0 in
03:29 32.0 °F 24.7 °F 30.05 in Calm   -999.0 mph 74 % 0 in
03:44 31.3 °F 24.3 °F 30.05 in Calm   -999.0 mph 75 % 0 in
04:00 31.3 °F 25.2 °F 30.05 in Calm   -999.0 mph 78 % 0 in
04:16 30.9 °F 24.8 °F 30.06 in Calm   -999.0 mph 78 % 0 in
04:31 30.6 °F 23.9 °F 30.05 in Calm   -999.0 mph 76 % 0 in
04:46 30.2 °F 24.2 °F 30.05 in Calm   -999.0 mph 78 % 0 in
05:01 29.8 °F 24.7 °F 30.05 in Calm   -999.0 mph 81 % 0 in
05:16 30.0 °F 25.5 °F 30.06 in Calm   -999.0 mph 83 % 0 in
05:32 29.5 °F 25.5 °F 30.06 in Calm   -999.0 mph 85 % 0 in
05:47 30.0 °F 26.0 °F 30.06 in Calm   -999.0 mph 85 % 0 in
06:02 30.0 °F 26.0 °F 30.07 in Calm   -999.0 mph 85 % 0 in
06:17 30.2 °F 25.9 °F 30.07 in Calm   -999.0 mph 84 % 0 in
06:32 30.0 °F 25.8 °F 30.08 in Calm   -999.0 mph 84 % 0 in
06:48 29.8 °F 25.3 °F 30.08 in Calm   -999.0 mph 83 % 0 in
07:03 29.8 °F 25.3 °F 30.08 in Calm   -999.0 mph 83 % 0 in
07:18 29.7 °F 25.2 °F 30.08 in Calm   -999.0 mph 83 % 0 in
07:33 29.8 °F 25.6 °F 30.09 in Calm   -999.0 mph 84 % 0 in
07:48 30.2 °F 26.2 °F 30.09 in Calm   -999.0 mph 85 % 0 in
08:04 31.6 °F 27.6 °F 30.09 in Calm   -999.0 mph 85 % 0 in
08:19 33.6 °F 26.8 °F 30.09 in Calm   -999.0 mph 76 % 0 in
08:34 35.6 °F 27.5 °F 30.09 in Calm   -999.0 mph 72 % 0 in
08:49 38.8 °F 24.4 °F 30.09 in East 1.7 mph -999.0 mph 56 % 0 in
09:04 40.6 °F 23.9 °F 30.10 in NNE 1.7 mph -999.0 mph 51 % 0 in
09:20 42.4 °F 24.6 °F 30.10 in ESE 1.7 mph -999.0 mph 49 % 0 in
09:35 43.7 °F 24.8 °F 30.10 in North 5.8 mph -999.0 mph 47 % 0 in
09:50 44.8 °F 24.2 °F 30.10 in WSW 2.2 mph -999.0 mph 44 % 0 in
10:05 46.2 °F 23.8 °F 30.10 in NNW 4.7 mph -999.0 mph 41 % 0 in
10:20 47.3 °F 23.0 °F 30.10 in ENE 2.2 mph -999.0 mph 38 % 0 in
10:36 49.3 °F 24.1 °F 30.10 in SW 2.2 mph -999.0 mph 37 % 0 in
10:51 50.7 °F 24.7 °F 30.10 in WNW 3.2 mph -999.0 mph 36 % 0 in
11:06 52.9 °F 24.6 °F 30.10 in NNE 2.2 mph -999.0 mph 33 % 0 in
11:21 54.5 °F 25.2 °F 30.10 in North 3.7 mph -999.0 mph 32 % 0 in
11:37 55.8 °F 25.6 °F 30.09 in NW 5.3 mph -999.0 mph 31 % 0 in
11:52 56.1 °F 25.9 °F 30.09 in NW 2.2 mph -999.0 mph 31 % 0 in
12:07 58.3 °F 28.6 °F 30.09 in NW 4.7 mph -999.0 mph 32 % 0 in
12:22 59.4 °F 29.5 °F 30.09 in NNW 3.2 mph -999.0 mph 32 % 0 in
12:38 59.2 °F 29.3 °F 30.09 in NNW 4.7 mph -999.0 mph 32 % 0 in
12:53 59.0 °F 29.2 °F 30.09 in WNW 3.7 mph -999.0 mph 32 % 0 in
13:08 59.5 °F 29.6 °F 30.09 in NNW 4.7 mph -999.0 mph 32 % 0 in
13:24 60.1 °F 29.4 °F 30.09 in NE 4.2 mph -999.0 mph 31 % 0 in
13:39 60.1 °F 28.5 °F 30.08 in North 5.3 mph -999.0 mph 30 % 0 in
13:54 59.4 °F 28.7 °F 30.08 in WNW 4.2 mph -999.0 mph 31 % 0 in
14:10 57.9 °F 25.0 °F 30.08 in NNE 3.2 mph -999.0 mph 28 % 0 in
14:25 59.4 °F 28.7 °F 30.08 in NNW 4.2 mph -999.0 mph 31 % 0 in
14:40 59.0 °F 26.8 °F 30.08 in North 4.2 mph -999.0 mph 29 % 0 in
14:56 58.6 °F 28.0 °F 30.08 in NW 6.3 mph -999.0 mph 31 % 0 in
15:11 58.5 °F 27.2 °F 30.08 in WNW 2.7 mph -999.0 mph 30 % 0 in
15:26 57.0 °F 26.6 °F 30.08 in NNW 3.7 mph -999.0 mph 31 % 0 in
15:42 58.3 °F 28.6 °F 30.08 in NNW 5.3 mph -999.0 mph 32 % 0 in
15:57 57.6 °F 24.7 °F 30.08 in NNE 5.8 mph -999.0 mph 28 % 0 in
16:12 57.2 °F 26.8 °F 30.08 in North 3.2 mph -999.0 mph 31 % 0 in
16:43 55.4 °F 24.5 °F 30.08 in NNW 4.2 mph -999.0 mph 30 % 0 in
16:58 55.8 °F 24.8 °F 30.08 in NNW 2.7 mph -999.0 mph 30 % 0 in
17:13 55.0 °F 25.7 °F 30.08 in ENE 1.7 mph -999.0 mph 32 % 0 in
17:28 54.3 °F 26.5 °F 30.08 in NW 4.7 mph -999.0 mph 34 % 0 in
17:44 53.1 °F 27.5 °F 30.09 in WNW 2.7 mph -999.0 mph 37 % 0 in
17:59 51.8 °F 25.7 °F 30.09 in NW 3.2 mph -999.0 mph 36 % 0 in
18:14 51.4 °F 26.0 °F 30.09 in NNW 3.2 mph -999.0 mph 37 % 0 in
18:30 50.5 °F 25.8 °F 30.09 in WNW 2.2 mph -999.0 mph 38 % 0 in
18:45 49.3 °F 26.6 °F 30.10 in Calm   -999.0 mph 41 % 0 in
19:00 48.0 °F 24.2 °F 30.09 in Calm   -999.0 mph 39 % 0 in
19:15 46.6 °F 23.6 °F 30.10 in Calm   -999.0 mph 40 % 0 in
19:31 45.3 °F 23.0 °F 30.10 in Calm   -999.0 mph 41 % 0 in
19:46 44.2 °F 22.0 °F 30.10 in Calm   -999.0 mph 41 % 0 in
20:01 43.2 °F 21.6 °F 30.10 in Calm   -999.0 mph 42 % 0 in
20:32 41.4 °F 21.6 °F 30.11 in Calm   -999.0 mph 45 % 0 in
20:47 40.6 °F 23.4 °F 30.11 in Calm   -999.0 mph 50 % 0 in
21:02 40.3 °F 24.1 °F 30.11 in Calm   -999.0 mph 52 % 0 in
21:17 39.6 °F 23.9 °F 30.11 in SSE 1.7 mph -999.0 mph 53 % 0 in
21:32 38.7 °F 22.6 °F 30.12 in Calm   -999.0 mph 52 % 0 in
21:48 37.8 °F 21.7 °F 30.12 in Calm   -999.0 mph 52 % 0 in
22:03 37.6 °F 22.4 °F 30.12 in Calm   -999.0 mph 54 % 0 in
22:18 37.6 °F 22.9 °F 30.12 in SSE 2.2 mph -999.0 mph 55 % 0 in
22:34 37.2 °F 22.5 °F 30.12 in SSE 1.7 mph -999.0 mph 55 % 0 in
22:49 37.0 °F 21.4 °F 30.12 in SSW 2.2 mph -999.0 mph 53 % 0 in
23:05 37.0 °F 23.6 °F 30.12 in SSE 1.7 mph -999.0 mph 58 % 0 in
23:20 36.9 °F 24.3 °F 30.12 in South 2.7 mph -999.0 mph 60 % 0 in
23:35 36.1 °F 24.3 °F 30.12 in SSE 1.1 mph -999.0 mph 62 % 0 in
23:50 35.6 °F 23.9 °F 30.12 in Calm   -999.0 mph 62 % 0 in
Big Bear CA Weather
Compliments of Weather Underground - 1.5 mb